Time;durP1;ratioP1;P1;durP2;ratioP2;P2;SDS_P1;SDS_P2;PMS_P1;PMS_P2;Temp;Humidity;BMP_temperature;BMP_pressure;BME280_temperature;BME280_humidity;BME280_pressure;Samples;Min_cycle;Max_cycle;Signal;HPM_P1;HPM_P2
2023/09/29 00:00:18;;;;;;;3.33;2.08;;;20.30;69.40;;;;;;5134188;27;20208;-67
2023/09/29 00:02:45;;;;;;;3.55;1.88;;;20.30;69.50;;;;;;5134991;27;20199;-67
2023/09/29 00:05:10;;;;;;;3.03;1.73;;;20.30;69.50;;;;;;5133879;27;20623;-68
2023/09/29 00:07:37;;;;;;;3.63;1.85;;;20.20;69.40;;;;;;5134840;27;20182;-68
2023/09/29 00:10:08;;;;;;;3.58;2.25;;;20.30;69.50;;;;;;5134751;27;20212;-67
2023/09/29 00:12:34;;;;;;;2.78;1.90;;;20.30;69.50;;;;;;5133930;27;20576;-67
2023/09/29 00:15:00;;;;;;;2.92;2.30;;;20.30;69.50;;;;;;5134823;27;20225;-67
2023/09/29 00:17:26;;;;;;;2.60;2.00;;;20.30;69.50;;;;;;5134489;27;20164;-67
2023/09/29 00:19:52;;;;;;;2.40;1.83;;;20.30;69.40;;;;;;5133996;27;20207;-68
2023/09/29 00:22:18;;;;;;;2.60;2.00;;;20.20;69.40;;;;;;5134197;27;20278;-68
2023/09/29 00:24:43;;;;;;;2.85;2.17;;;20.30;69.50;;;;;;5134769;27;20688;-68
2023/09/29 00:27:09;;;;;;;3.25;1.75;;;20.30;69.50;;;;;;5133686;27;20180;-67
2023/09/29 00:29:34;;;;;;;4.35;1.85;;;20.20;69.40;;;;;;5134472;27;20208;-67
2023/09/29 00:32:00;;;;;;;3.35;1.90;;;20.20;69.40;;;;;;5134333;27;20195;-67
2023/09/29 00:34:26;;;;;;;3.83;2.00;;;20.20;69.40;;;;;;5133463;27;20530;-67
2023/09/29 00:36:51;;;;;;;3.35;1.65;;;20.20;69.40;;;;;;5134324;27;20172;-67
2023/09/29 00:39:18;;;;;;;3.42;1.80;;;20.20;69.50;;;;;;5133798;27;20255;-68
2023/09/29 00:41:43;;;;;;;2.28;1.88;;;20.20;69.40;;;;;;5133800;27;20177;-67
2023/09/29 00:44:10;;;;;;;3.20;2.20;;;20.30;69.50;;;;;;5133969;27;20680;-67
2023/09/29 00:46:36;;;;;;;4.53;2.08;;;20.20;69.50;;;;;;5133985;27;20273;-67
2023/09/29 00:49:04;;;;;;;2.22;1.55;;;20.20;69.50;;;;;;5114972;27;20176;-68
2023/09/29 00:51:30;;;;;;;4.10;1.75;;;20.20;69.50;;;;;;5133903;27;20528;-68
2023/09/29 00:53:56;;;;;;;3.78;1.90;;;20.20;69.50;;;;;;5115847;27;20255;-67
2023/09/29 00:56:22;;;;;;;3.13;1.98;;;20.20;69.50;;;;;;5133178;27;20263;-67
2023/09/29 00:58:47;;;;;;;2.40;1.77;;;20.20;69.50;;;;;;5115832;27;20165;-67
2023/09/29 01:01:13;;;;;;;4.18;2.05;;;20.20;69.60;;;;;;5133626;27;20165;-67
2023/09/29 01:03:38;;;;;;;2.78;1.90;;;20.20;69.60;;;;;;5114836;27;20207;-68
2023/09/29 01:06:08;;;;;;;2.47;2.05;;;20.20;69.50;;;;;;5133385;27;20168;-68
2023/09/29 01:08:33;;;;;;;3.50;2.13;;;20.20;69.50;;;;;;5098915;27;20173;-68
2023/09/29 01:10:59;;;;;;;3.38;2.13;;;20.20;69.50;;;;;;5133639;27;20208;-67
2023/09/29 01:13:24;;;;;;;2.60;1.90;;;20.20;69.60;;;;;;5133483;27;20164;-67
2023/09/29 01:15:50;;;;;;;3.22;2.05;;;20.20;69.60;;;;;;5133125;27;20204;-67
2023/09/29 01:18:19;;;;;;;3.47;1.90;;;20.20;69.60;;;;;;5133488;27;20214;-68
2023/09/29 01:20:45;;;;;;;2.22;1.70;;;20.20;69.60;;;;;;5133634;27;20176;-67
2023/09/29 01:23:10;;;;;;;1.88;1.60;;;20.20;69.50;;;;;;5132817;27;20255;-68
2023/09/29 01:25:36;;;;;;;2.72;1.98;;;20.20;69.60;;;;;;5133451;27;20237;-68
2023/09/29 01:28:05;;;;;;;2.50;1.73;;;20.20;69.50;;;;;;5133464;27;20256;-68
2023/09/29 01:30:31;;;;;;;2.95;1.98;;;20.20;69.60;;;;;;5132674;28;20291;-67
2023/09/29 01:32:57;;;;;;;3.30;2.25;;;20.20;69.60;;;;;;5133608;28;20669;-67
2023/09/29 01:35:27;;;;;;;3.80;2.30;;;20.20;69.60;;;;;;5133164;28;20520;-67
2023/09/29 01:37:53;;;;;;;3.08;1.98;;;20.20;69.60;;;;;;5132910;28;20188;-67
2023/09/29 01:40:22;;;;;;;2.13;1.65;;;20.20;69.60;;;;;;5133245;28;20172;-67
2023/09/29 01:42:49;;;;;;;2.05;1.58;;;20.20;69.60;;;;;;5133583;28;20180;-67
2023/09/29 01:45:15;;;;;;;4.63;1.98;;;20.20;69.70;;;;;;5132239;28;20233;-67
2023/09/29 01:47:45;;;;;;;4.05;1.90;;;20.20;69.60;;;;;;5133136;28;20673;-67
2023/09/29 01:50:16;;;;;;;2.00;1.80;;;20.20;69.70;;;;;;5133453;28;20212;-67
2023/09/29 01:52:44;;;;;;;2.80;2.05;;;20.20;69.70;;;;;;5132848;28;20177;-67
2023/09/29 01:55:14;;;;;;;1.85;1.70;;;20.20;69.70;;;;;;5133176;28;20180;-67
2023/09/29 01:57:43;;;;;;;3.25;1.67;;;20.20;69.70;;;;;;5133117;28;20169;-67
2023/09/29 02:00:14;;;;;;;1.95;1.73;;;20.20;69.70;;;;;;5132887;28;20233;-67
2023/09/29 02:02:39;;;;;;;2.28;1.83;;;20.20;69.70;;;;;;5133157;28;20606;-67
2023/09/29 02:05:07;;;;;;;2.50;1.60;;;20.20;69.70;;;;;;5123294;28;20190;-68
2023/09/29 02:07:33;;;;;;;5.18;2.47;;;20.20;69.70;;;;;;5112707;28;20173;-68
2023/09/29 02:09:58;;;;;;;2.00;1.75;;;20.20;69.70;;;;;;5112690;28;20571;-67
2023/09/29 02:12:24;;;;;;;2.17;1.98;;;20.20;69.70;;;;;;5115655;28;20181;-67
2023/09/29 02:14:51;;;;;;;3.42;2.10;;;20.10;69.70;;;;;;5116476;28;20181;-67
2023/09/29 02:17:18;;;;;;;3.15;1.80;;;20.10;69.70;;;;;;5116066;28;20620;-67
2023/09/29 02:19:43;;;;;;;2.30;2.10;;;20.20;69.70;;;;;;5115892;28;20200;-67
2023/09/29 02:22:09;;;;;;;4.15;2.25;;;20.10;69.70;;;;;;5116207;28;20616;-67
2023/09/29 02:24:34;;;;;;;3.10;1.85;;;20.10;69.70;;;;;;5116344;28;20526;-68
2023/09/29 02:27:00;;;;;;;3.78;2.20;;;20.10;69.70;;;;;;5115520;28;20165;-67
2023/09/29 02:29:25;;;;;;;3.00;1.90;;;20.20;69.70;;;;;;5115996;28;20213;-68
2023/09/29 02:31:51;;;;;;;2.97;1.98;;;20.20;69.80;;;;;;5116450;28;20173;-67
2023/09/29 02:34:17;;;;;;;3.50;2.03;;;20.20;69.70;;;;;;5115250;28;20795;-67
2023/09/29 02:36:42;;;;;;;2.35;1.75;;;20.10;69.70;;;;;;5116294;28;20568;-67
2023/09/29 02:39:08;;;;;;;3.88;2.13;;;20.20;69.80;;;;;;5115900;28;20207;-67
2023/09/29 02:41:35;;;;;;;3.97;2.20;;;20.10;69.70;;;;;;5115237;28;20169;-67
2023/09/29 02:44:01;;;;;;;2.58;1.95;;;20.10;69.70;;;;;;5115738;28;20200;-67
2023/09/29 02:46:27;;;;;;;2.05;1.75;;;20.10;69.70;;;;;;5115543;28;20691;-67
2023/09/29 02:48:52;;;;;;;2.78;2.03;;;20.10;69.70;;;;;;5115295;28;20177;-67
2023/09/29 02:51:18;;;;;;;4.25;2.30;;;20.10;69.70;;;;;;5115535;28;20215;-67
2023/09/29 02:53:44;;;;;;;2.92;1.98;;;20.10;69.70;;;;;;5115857;28;20173;-67
2023/09/29 02:56:12;;;;;;;2.80;2.00;;;20.10;69.80;;;;;;5114897;28;20184;-67
2023/09/29 02:58:39;;;;;;;3.17;1.90;;;20.10;69.70;;;;;;5115707;28;20172;-67
2023/09/29 03:01:11;;;;;;;3.15;1.80;;;20.20;69.80;;;;;;5114788;28;20208;-68
2023/09/29 03:03:37;;;;;;;2.10;1.90;;;20.10;69.80;;;;;;5115667;28;20184;-67
2023/09/29 03:06:07;;;;;;;2.28;1.80;;;20.10;69.80;;;;;;5115296;28;20651;-68
2023/09/29 03:08:33;;;;;;;2.92;1.90;;;20.10;69.80;;;;;;5114833;28;20176;-67
2023/09/29 03:10:59;;;;;;;3.20;2.20;;;20.10;69.80;;;;;;5115159;28;20205;-67
2023/09/29 03:13:24;;;;;;;2.42;1.88;;;20.20;69.80;;;;;;5115445;28;20173;-67
2023/09/29 03:15:51;;;;;;;3.25;2.25;;;20.10;69.80;;;;;;5114584;28;20173;-67
2023/09/29 03:18:17;;;;;;;3.00;1.70;;;20.10;69.80;;;;;;5115015;28;20173;-68
2023/09/29 03:20:42;;;;;;;3.75;2.03;;;20.10;69.80;;;;;;5115419;28;20227;-67
2023/09/29 03:23:08;;;;;;;3.25;2.20;;;20.10;69.90;;;;;;5113256;28;20165;-67
2023/09/29 03:25:33;;;;;;;2.92;2.35;;;20.10;69.90;;;;;;5115074;28;20231;-68
2023/09/29 03:27:59;;;;;;;3.20;2.05;;;20.10;69.80;;;;;;5114965;28;20169;-67
2023/09/29 03:30:25;;;;;;;2.53;2.08;;;20.10;69.80;;;;;;5114285;28;20209;-67
2023/09/29 03:32:52;;;;;;;2.78;2.45;;;20.10;69.90;;;;;;5115183;28;20181;-67
2023/09/29 03:35:17;;;;;;;4.70;2.25;;;20.10;69.80;;;;;;5114732;28;20248;-67
2023/09/29 03:37:44;;;;;;;4.40;2.03;;;20.10;69.80;;;;;;5114269;28;20252;-67
2023/09/29 03:40:11;;;;;;;2.90;2.33;;;20.10;69.80;;;;;;5114576;28;20177;-67
2023/09/29 03:42:37;;;;;;;1.83;1.70;;;20.10;69.90;;;;;;5115030;28;20216;-67
2023/09/29 03:45:06;;;;;;;3.72;2.03;;;20.10;69.80;;;;;;5114049;28;20169;-67
2023/09/29 03:47:33;;;;;;;2.50;1.80;;;20.10;69.90;;;;;;5114432;28;20686;-67
2023/09/29 03:49:59;;;;;;;3.10;1.90;;;20.00;69.80;;;;;;5114376;28;20667;-67
2023/09/29 03:52:25;;;;;;;2.88;2.10;;;20.10;69.80;;;;;;5113928;28;20173;-67
2023/09/29 03:54:51;;;;;;;2.78;2.20;;;20.10;69.80;;;;;;5114605;28;20180;-66
2023/09/29 03:57:16;;;;;;;2.70;2.03;;;20.10;69.90;;;;;;5113766;28;20169;-66
2023/09/29 03:59:42;;;;;;;3.88;2.50;;;20.10;69.90;;;;;;5114774;28;20177;-66
2023/09/29 04:02:08;;;;;;;2.97;2.30;;;20.10;69.90;;;;;;5114220;28;20165;-67
2023/09/29 04:04:34;;;;;;;3.55;1.90;;;20.10;70.80;;;;;;5113725;28;20188;-67
2023/09/29 04:06:59;;;;;;;2.95;2.08;;;20.10;69.80;;;;;;5114310;28;20173;-67
2023/09/29 04:09:25;;;;;;;2.97;2.25;;;20.10;69.90;;;;;;5114081;28;20570;-67
2023/09/29 04:11:50;;;;;;;2.08;1.58;;;20.10;69.90;;;;;;5113877;28;20502;-66
2023/09/29 04:14:16;;;;;;;3.08;2.00;;;20.10;69.90;;;;;;5113901;28;20184;-67
2023/09/29 04:16:41;;;;;;;3.75;2.20;;;20.00;69.80;;;;;;5114489;28;20262;-67
2023/09/29 04:19:07;;;;;;;3.05;2.08;;;20.10;69.90;;;;;;5113172;28;20204;-67
2023/09/29 04:21:33;;;;;;;3.58;1.80;;;20.10;69.90;;;;;;5113898;28;20200;-67
2023/09/29 04:23:58;;;;;;;3.17;2.15;;;20.10;69.90;;;;;;5113721;28;20188;-67
2023/09/29 04:26:24;;;;;;;2.10;1.90;;;20.00;69.90;;;;;;5113246;28;20173;-67
2023/09/29 04:28:52;;;;;;;3.90;2.10;;;20.00;69.90;;;;;;5113965;28;20238;-67
2023/09/29 04:31:18;;;;;;;3.88;2.00;;;20.10;70.00;;;;;;5113586;28;20181;-67
2023/09/29 04:33:44;;;;;;;2.25;1.98;;;20.00;69.90;;;;;;5112924;28;20177;-67
2023/09/29 04:36:11;;;;;;;4.03;2.20;;;20.10;70.00;;;;;;5113483;28;20584;-67
2023/09/29 04:38:43;;;;;;;2.20;1.92;;;20.10;70.00;;;;;;5113638;28;20185;-67
2023/09/29 04:41:08;;;;;;;2.33;1.90;;;20.10;70.00;;;;;;5112610;28;20201;-66
2023/09/29 04:43:34;;;;;;;2.30;2.10;;;20.10;70.00;;;;;;5113559;28;20204;-68
2023/09/29 04:45:59;;;;;;;2.55;1.60;;;20.10;70.00;;;;;;5113224;28;20217;-68
2023/09/29 04:48:25;;;;;;;2.60;1.95;;;20.10;70.00;;;;;;5112744;28;20230;-68
2023/09/29 04:50:51;;;;;;;2.53;2.20;;;20.10;70.00;;;;;;5113524;28;20197;-68
2023/09/29 04:53:16;;;;;;;3.20;2.00;;;20.00;69.90;;;;;;5113024;28;20226;-68
2023/09/29 04:55:42;;;;;;;3.13;2.15;;;20.00;69.90;;;;;;5112926;28;20535;-67
2023/09/29 04:58:09;;;;;;;2.22;2.03;;;20.10;70.00;;;;;;5113213;28;20230;-67
2023/09/29 05:00:35;;;;;;;3.92;2.58;;;20.10;70.00;;;;;;5112722;28;20590;-68
2023/09/29 05:03:01;;;;;;;2.97;2.00;;;20.10;70.10;;;;;;5113113;28;20562;-68
2023/09/29 05:05:26;;;;;;;2.92;2.03;;;20.00;70.00;;;;;;5113163;28;20180;-68
2023/09/29 05:07:52;;;;;;;2.05;1.83;;;20.10;70.10;;;;;;5112519;28;20169;-67
2023/09/29 05:10:19;;;;;;;2.17;1.88;;;20.10;70.10;;;;;;5112966;28;20262;-67
2023/09/29 05:12:45;;;;;;;2.22;1.98;;;20.10;70.00;;;;;;5113330;28;20573;-67
2023/09/29 05:15:10;;;;;;;2.55;2.08;;;20.10;70.10;;;;;;5112250;28;20184;-68
2023/09/29 05:17:36;;;;;;;2.10;1.75;;;20.10;70.10;;;;;;5113072;28;20612;-68
2023/09/29 05:20:02;;;;;;;2.35;2.03;;;20.00;70.00;;;;;;5112920;28;20250;-66
2023/09/29 05:22:28;;;;;;;2.47;2.03;;;20.00;70.10;;;;;;5112176;28;20595;-68
2023/09/29 05:24:53;;;;;;;2.28;1.85;;;20.00;70.00;;;;;;5113211;28;20201;-67
2023/09/29 05:27:19;;;;;;;2.38;2.17;;;20.10;70.10;;;;;;5112810;28;20169;-67
2023/09/29 05:29:45;;;;;;;1.98;1.73;;;20.00;70.00;;;;;;5112439;28;20201;-68
2023/09/29 05:32:11;;;;;;;2.47;1.92;;;20.00;70.10;;;;;;5112700;28;20169;-67
2023/09/29 05:34:36;;;;;;;2.20;2.00;;;20.00;70.00;;;;;;5112813;28;20181;-67
2023/09/29 05:37:02;;;;;;;2.30;2.10;;;20.00;70.10;;;;;;5111975;28;20221;-67
2023/09/29 05:39:27;;;;;;;1.98;1.80;;;20.00;70.00;;;;;;5112961;28;20211;-67
2023/09/29 05:41:53;;;;;;;2.47;2.22;;;20.00;70.00;;;;;;5113001;28;20164;-66
2023/09/29 05:44:19;;;;;;;2.13;1.70;;;20.10;70.10;;;;;;5111856;28;20184;-68
2023/09/29 05:46:44;;;;;;;1.80;1.70;;;20.10;70.10;;;;;;5116287;28;20688;-68
2023/09/29 05:49:10;;;;;;;4.32;2.28;;;20.00;70.00;;;;;;5116630;28;20277;-68
2023/09/29 05:51:36;;;;;;;2.33;2.13;;;20.00;70.10;;;;;;5116226;28;20184;-68
2023/09/29 05:54:03;;;;;;;2.05;1.83;;;20.00;70.10;;;;;;5116781;28;20173;-67
2023/09/29 05:56:31;;;;;;;3.00;2.10;;;20.00;70.10;;;;;;5116976;28;20272;-67
2023/09/29 05:59:00;;;;;;;2.28;2.03;;;20.00;70.00;;;;;;5116298;28;20259;-67
2023/09/29 06:01:25;;;;;;;2.65;1.90;;;20.00;70.10;;;;;;5116649;28;20175;-68
2023/09/29 06:03:54;;;;;;;2.85;1.90;;;20.00;70.10;;;;;;5116292;28;20256;-68
2023/09/29 06:06:23;;;;;;;3.00;2.17;;;20.10;70.10;;;;;;5116537;28;20508;-68
2023/09/29 06:08:49;;;;;;;2.38;2.10;;;20.10;70.10;;;;;;5116925;28;20177;-68
2023/09/29 06:11:14;;;;;;;2.25;2.00;;;20.00;70.00;;;;;;5115803;28;20216;-68
2023/09/29 06:13:40;;;;;;;2.85;2.20;;;20.00;70.00;;;;;;5116668;28;20248;-68
2023/09/29 06:16:06;;;;;;;2.38;1.90;;;20.00;70.00;;;;;;5116229;28;20197;-68
2023/09/29 06:18:31;;;;;;;4.13;2.35;;;20.00;70.00;;;;;;5115776;28;20582;-68
2023/09/29 06:20:57;;;;;;;1.73;1.58;;;20.00;70.10;;;;;;5116503;28;20226;-67
2023/09/29 06:23:22;;;;;;;2.63;2.30;;;20.00;70.10;;;;;;5116433;28;20252;-67
2023/09/29 06:26:04;;;;;;;2.72;2.15;;;20.00;70.00;;;;;;5115806;28;20197;-67
2023/09/29 06:28:30;;;;;;;2.08;1.80;;;20.00;70.00;;;;;;5116157;28;20169;-67
2023/09/29 06:30:56;;;;;;;2.10;1.83;;;20.10;70.00;;;;;;5116074;28;20296;-67
2023/09/29 06:33:22;;;;;;;2.15;1.95;;;20.10;70.10;;;;;;5115278;28;20177;-67
2023/09/29 06:35:48;;;;;;;2.50;1.75;;;20.10;70.10;;;;;;5116365;28;20248;-66
2023/09/29 06:38:14;;;;;;;2.80;1.85;;;20.10;70.00;;;;;;5115909;28;20169;-66
2023/09/29 06:40:40;;;;;;;2.65;1.75;;;20.10;70.10;;;;;;5115338;28;20264;-66
2023/09/29 06:43:06;;;;;;;2.00;1.80;;;20.10;70.10;;;;;;5115772;28;20201;-67
2023/09/29 06:45:33;;;;;;;2.03;1.77;;;20.10;70.10;;;;;;5115624;28;20251;-67
2023/09/29 06:47:59;;;;;;;2.90;2.00;;;20.10;70.10;;;;;;5115212;28;20189;-67
2023/09/29 06:50:25;;;;;;;3.05;2.00;;;20.10;70.10;;;;;;5115388;28;20293;-66
2023/09/29 06:52:50;;;;;;;2.70;2.00;;;20.00;70.10;;;;;;5115786;28;20177;-68
2023/09/29 06:55:16;;;;;;;2.03;1.83;;;20.00;70.10;;;;;;5114775;28;20176;-67
2023/09/29 06:57:41;;;;;;;2.72;1.90;;;20.10;70.20;;;;;;5115597;28;20181;-66
2023/09/29 07:00:09;;;;;;;4.20;2.40;;;20.00;70.10;;;;;;5115180;28;20184;-67
2023/09/29 07:02:35;;;;;;;2.22;1.58;;;20.10;70.10;;;;;;5115506;28;20177;-67
2023/09/29 07:05:00;;;;;;;2.72;2.17;;;20.10;70.10;;;;;;5115354;28;20179;-68
2023/09/29 07:07:26;;;;;;;2.33;1.73;;;20.10;70.10;;;;;;5114437;28;20170;-67
2023/09/29 07:09:51;;;;;;;1.65;1.50;;;20.10;70.10;;;;;;5115462;28;20299;-67
2023/09/29 07:12:17;;;;;;;1.45;1.35;;;20.10;70.10;;;;;;5115004;28;20210;-67
2023/09/29 07:14:42;;;;;;;1.83;1.60;;;20.10;70.20;;;;;;5114725;28;20181;-67
2023/09/29 07:17:08;;;;;;;2.38;2.05;;;20.10;70.20;;;;;;5115108;28;20177;-67
2023/09/29 07:19:34;;;;;;;1.90;1.65;;;20.10;70.10;;;;;;5115483;28;20169;-67
2023/09/29 07:22:00;;;;;;;2.72;1.60;;;20.10;70.10;;;;;;5114334;28;20649;-67
2023/09/29 07:24:26;;;;;;;2.42;1.70;;;20.10;70.10;;;;;;5114932;28;20185;-68
2023/09/29 07:26:51;;;;;;;2.47;1.40;;;20.10;70.10;;;;;;5115204;28;20230;-68
2023/09/29 07:29:18;;;;;;;2.00;1.80;;;20.10;70.10;;;;;;5114125;28;20588;-68
2023/09/29 07:31:48;;;;;;;2.50;1.85;;;20.10;70.00;;;;;;5115535;28;20185;-67
2023/09/29 07:34:15;;;;;;;2.80;1.77;;;20.10;70.00;;;;;;5115005;28;20177;-67
2023/09/29 07:36:43;;;;;;;2.40;1.77;;;20.20;70.10;;;;;;5114332;28;20181;-67
2023/09/29 07:39:09;;;;;;;1.65;1.55;;;20.20;70.10;;;;;;5114628;28;20623;-67
2023/09/29 07:41:34;;;;;;;2.63;1.60;;;20.20;70.10;;;;;;5114833;28;20212;-66
2023/09/29 07:44:00;;;;;;;2.38;1.95;;;20.10;70.00;;;;;;5113882;28;20261;-67
2023/09/29 07:46:25;;;;;;;3.08;1.83;;;20.20;70.10;;;;;;5114551;28;20308;-67
2023/09/29 07:48:51;;;;;;;2.95;1.75;;;20.20;70.10;;;;;;5114930;28;20173;-67
2023/09/29 07:51:17;;;;;;;2.10;1.85;;;20.10;70.00;;;;;;5113770;28;20213;-67
2023/09/29 07:53:43;;;;;;;1.60;1.50;;;20.20;70.10;;;;;;5114848;28;20176;-67
2023/09/29 07:56:09;;;;;;;1.90;1.80;;;20.20;70.20;;;;;;5114285;28;20173;-67
2023/09/29 07:58:35;;;;;;;6.32;2.50;;;20.10;70.10;;;;;;5113707;28;20325;-67
2023/09/29 08:01:00;;;;;;;2.25;2.05;;;20.10;70.10;;;;;;5114247;28;20176;-67
2023/09/29 08:03:26;;;;;;;3.03;1.85;;;20.20;70.20;;;;;;5113909;28;20202;-68
2023/09/29 08:05:53;;;;;;;2.42;1.70;;;20.20;70.20;;;;;;5114491;28;20731;-67
2023/09/29 08:08:19;;;;;;;2.17;1.90;;;20.20;70.20;;;;;;5113422;28;20305;-67
2023/09/29 08:10:44;;;;;;;2.88;1.80;;;20.20;70.20;;;;;;5113586;28;20284;-67
2023/09/29 08:13:10;;;;;;;1.95;1.75;;;20.20;70.20;;;;;;5114101;28;20313;-67
2023/09/29 08:15:35;;;;;;;2.13;1.80;;;20.20;70.20;;;;;;5114258;28;20166;-67
2023/09/29 08:18:01;;;;;;;3.53;1.83;;;20.20;70.20;;;;;;5113368;28;20209;-68
2023/09/29 08:20:26;;;;;;;2.47;1.60;;;20.20;70.20;;;;;;5114073;28;20169;-67
2023/09/29 08:22:52;;;;;;;1.92;1.73;;;20.20;70.20;;;;;;5114128;28;20205;-67
2023/09/29 08:25:19;;;;;;;2.05;1.80;;;20.20;70.30;;;;;;5112978;28;20172;-68
2023/09/29 08:27:45;;;;;;;2.95;1.92;;;20.20;70.30;;;;;;5113914;28;20255;-68
2023/09/29 08:30:11;;;;;;;2.42;2.00;;;20.20;70.30;;;;;;5113460;28;20300;-67
2023/09/29 08:32:38;;;;;;;2.15;1.48;;;20.20;70.30;;;;;;5113066;28;20693;-67
2023/09/29 08:35:05;;;;;;;1.75;1.65;;;20.20;70.30;;;;;;5113650;28;20177;-67
2023/09/29 08:37:30;;;;;;;2.25;1.60;;;20.30;70.30;;;;;;5113784;28;20169;-67
2023/09/29 08:39:56;;;;;;;2.70;1.73;;;20.20;70.30;;;;;;5113020;28;20681;-68
2023/09/29 08:42:37;;;;;;;2.05;1.80;;;20.20;70.20;;;;;;5113207;28;20218;-68
2023/09/29 08:45:08;;;;;;;2.00;1.80;;;20.30;70.60;;;;;;5113610;28;20181;-67
2023/09/29 08:47:33;;;;;;;3.40;2.05;;;20.30;70.30;;;;;;5072641;28;20570;-67
2023/09/29 08:49:59;;;;;;;2.25;2.03;;;20.40;70.90;;;;;;5055032;28;20220;-67
2023/09/29 08:52:28;;;;;;;2.65;1.75;;;20.40;71.00;;;;;;5071685;28;20171;-67
2023/09/29 08:54:54;;;;;;;3.10;1.83;;;20.50;70.90;;;;;;5070951;28;20191;-67
2023/09/29 08:57:19;;;;;;;2.00;1.80;;;20.50;71.10;;;;;;5071538;28;20672;-67
2023/09/29 08:59:45;;;;;;;4.03;1.75;;;20.50;71.10;;;;;;5072101;28;20180;-65
2023/09/29 09:02:11;;;;;;;2.72;1.63;;;20.50;71.30;;;;;;5072700;28;20170;-67
2023/09/29 09:04:37;;;;;;;3.50;1.95;;;20.50;71.30;;;;;;5072757;28;20186;-67
2023/09/29 09:07:02;;;;;;;3.22;1.88;;;20.60;71.10;;;;;;5071748;28;20170;-67
2023/09/29 09:09:28;;;;;;;2.55;1.90;;;20.60;71.00;;;;;;5072355;28;20206;-66
2023/09/29 09:11:54;;;;;;;2.58;1.73;;;20.60;71.00;;;;;;5072869;28;20240;-67
2023/09/29 09:14:19;;;;;;;3.92;2.00;;;20.70;71.10;;;;;;5080347;28;20169;-67
2023/09/29 09:16:45;;;;;;;2.95;1.65;;;20.60;71.00;;;;;;5074961;28;20175;-67
2023/09/29 09:19:14;;;;;;;1.90;1.80;;;20.60;71.00;;;;;;5092159;28;20219;-67
2023/09/29 09:21:41;;;;;;;3.65;1.95;;;20.60;71.00;;;;;;5083956;28;20171;-67
2023/09/29 09:24:23;;;;;;;1.92;1.77;;;20.70;70.90;;;;;;5072280;28;20185;-68
2023/09/29 09:26:50;;;;;;;2.65;1.60;;;20.70;70.80;;;;;;5072483;28;20261;-68
2023/09/29 09:29:16;;;;;;;4.32;2.22;;;20.70;70.80;;;;;;5071519;28;20179;-68
2023/09/29 09:31:46;;;;;;;3.35;2.05;;;20.80;70.70;;;;;;5092618;28;20189;-67
2023/09/29 09:34:15;;;;;;;4.72;1.80;;;20.70;70.60;;;;;;5092344;28;20195;-67
2023/09/29 09:36:44;;;;;;;2.30;1.85;;;20.70;70.70;;;;;;5091850;28;20219;-67
2023/09/29 09:39:10;;;;;;;1.42;1.33;;;20.70;70.80;;;;;;5092065;28;20180;-67
2023/09/29 09:41:35;;;;;;;2.70;1.92;;;20.70;70.90;;;;;;5092467;28;20177;-67
2023/09/29 09:44:01;;;;;;;2.53;2.22;;;20.70;70.90;;;;;;5073856;28;20170;-67
2023/09/29 09:46:27;;;;;;;3.13;1.95;;;20.70;71.00;;;;;;5110111;28;20227;-67
2023/09/29 09:48:55;;;;;;;3.25;2.10;;;20.70;71.00;;;;;;5078141;28;20700;-67
2023/09/29 09:51:41;;;;;;;3.30;2.20;;;20.70;71.00;;;;;;5110515;28;20212;-67
2023/09/29 09:54:08;;;;;;;3.67;1.80;;;20.70;70.90;;;;;;5114741;28;20168;-67
2023/09/29 09:57:09;;;;;;;1.95;1.67;;;20.70;70.80;;;;;;5114521;28;20183;-67
2023/09/29 09:59:39;;;;;;;3.13;1.65;;;20.80;70.80;;;;;;5129067;28;20184;-67
2023/09/29 10:02:06;;;;;;;2.20;1.63;;;20.90;70.50;;;;;;5132560;28;20261;-68
2023/09/29 10:04:35;;;;;;;3.45;1.63;;;20.90;70.40;;;;;;5097754;28;20183;-70
2023/09/29 10:07:00;;;;;;;3.33;2.10;;;20.80;70.50;;;;;;5098255;28;20551;-67
2023/09/29 10:09:26;;;;;;;4.82;2.33;;;20.80;70.60;;;;;;5132358;28;20193;-68
2023/09/29 10:11:58;;;;;;;2.70;1.80;;;20.90;70.80;;;;;;5131888;28;20263;-68
2023/09/29 10:14:24;;;;;;;3.42;1.83;;;20.80;70.90;;;;;;5132766;28;20305;-68
2023/09/29 10:17:00;;;;;;;5.00;2.22;;;20.90;71.70;;;;;;5133170;28;20262;-68
2023/09/29 10:19:34;;;;;;;3.78;1.75;;;20.90;70.90;;;;;;5115469;28;20175;-68
2023/09/29 10:22:00;;;;;;;2.28;1.70;;;20.90;70.90;;;;;;5119989;28;20168;-67
2023/09/29 10:24:28;;;;;;;3.70;1.85;;;20.90;70.90;;;;;;5111443;28;20184;-68
2023/09/29 10:26:59;;;;;;;3.25;2.00;;;20.90;70.90;;;;;;5112424;28;20509;-68
2023/09/29 10:29:25;;;;;;;3.25;2.10;;;21.00;70.70;;;;;;5112387;28;20177;-68
2023/09/29 10:31:52;;;;;;;3.78;2.10;;;21.00;70.80;;;;;;5113593;28;20181;-67
2023/09/29 10:34:21;;;;;;;3.28;2.15;;;21.00;70.90;;;;;;5115984;28;20594;-67
2023/09/29 10:36:53;;;;;;;2.80;1.95;;;21.00;71.00;;;;;;5116117;28;20581;-67
2023/09/29 10:39:24;;;;;;;3.15;1.90;;;20.90;71.00;;;;;;5114972;28;20546;-67
2023/09/29 10:42:00;;;;;;;3.92;2.30;;;20.90;71.00;;;;;;5116093;28;20180;-67
2023/09/29 10:44:28;;;;;;;3.92;2.17;;;20.90;71.70;;;;;;5116313;28;20179;-67
2023/09/29 10:46:54;;;;;;;4.40;2.45;;;20.80;71.60;;;;;;5115219;28;20592;-68
2023/09/29 10:49:20;;;;;;;2.28;2.05;;;20.90;71.90;;;;;;5115725;28;20206;-67
2023/09/29 10:51:46;;;;;;;3.92;2.08;;;20.90;71.70;;;;;;5116215;28;20674;-69
2023/09/29 10:54:12;;;;;;;5.28;2.45;;;20.90;71.90;;;;;;5115003;28;20180;-66
2023/09/29 10:56:37;;;;;;;3.60;2.15;;;21.00;71.60;;;;;;5115440;28;20169;-67
2023/09/29 10:59:08;;;;;;;5.80;2.67;;;20.90;71.50;;;;;;5115254;28;20539;-67
2023/09/29 11:01:34;;;;;;;2.90;2.30;;;20.90;71.70;;;;;;5114902;28;20173;-68
2023/09/29 11:04:05;;;;;;;3.67;2.47;;;20.90;71.60;;;;;;5097250;28;20177;-68
2023/09/29 11:06:30;;;;;;;5.10;2.10;;;20.90;71.60;;;;;;5114240;28;20170;-71
2023/09/29 11:08:57;;;;;;;4.85;2.33;;;20.90;71.60;;;;;;5097299;28;20256;-67
2023/09/29 11:11:26;;;;;;;5.97;2.33;;;20.90;71.60;;;;;;5115090;28;20297;-67
2023/09/29 11:13:56;;;;;;;5.05;2.20;;;21.00;71.70;;;;;;5114633;28;20173;-67
2023/09/29 11:16:26;;;;;;;3.90;1.90;;;20.90;71.60;;;;;;5114912;28;20549;-68
2023/09/29 11:18:56;;;;;;;3.63;2.30;;;20.90;71.70;;;;;;5115760;28;20177;-67
2023/09/29 11:21:35;;;;;;;4.47;2.50;;;20.90;71.80;;;;;;5121594;27;20184;-68
2023/09/29 11:24:09;;;;;;;4.43;2.45;;;21.00;72.00;;;;;;5135731;27;20168;-67
2023/09/29 11:26:37;;;;;;;6.15;2.88;;;20.90;72.00;;;;;;5135700;27;20207;-67
2023/09/29 11:29:03;;;;;;;2.90;2.08;;;20.90;72.10;;;;;;5134629;27;20183;-67
2023/09/29 11:31:29;;;;;;;7.70;2.58;;;20.90;72.20;;;;;;5135741;27;20208;-66
2023/09/29 11:33:56;;;;;;;4.65;2.15;;;20.80;72.10;;;;;;5135761;27;20507;-67
2023/09/29 11:36:23;;;;;;;4.38;2.60;;;20.90;72.20;;;;;;5134152;27;20685;-66
2023/09/29 11:38:52;;;;;;;4.57;2.30;;;20.90;72.10;;;;;;5135391;27;20626;-66
2023/09/29 11:41:18;;;;;;;5.45;2.70;;;20.90;72.10;;;;;;5134942;27;20255;-63
2023/09/29 11:43:45;;;;;;;3.92;2.35;;;21.00;72.00;;;;;;5132235;27;20259;-65
2023/09/29 11:46:10;;;;;;;3.92;2.28;;;21.00;71.90;;;;;;5134796;27;20714;-67
2023/09/29 11:48:36;;;;;;;3.67;2.42;;;21.00;71.90;;;;;;5133691;27;20176;-67
2023/09/29 11:51:03;;;;;;;3.72;2.38;;;20.90;71.90;;;;;;5134993;27;20672;-66
2023/09/29 11:53:29;;;;;;;5.30;2.58;;;20.90;72.00;;;;;;5135226;27;20260;-66
2023/09/29 11:55:56;;;;;;;3.17;2.30;;;20.80;72.00;;;;;;5134369;27;20638;-66
2023/09/29 11:58:23;;;;;;;3.92;2.30;;;20.80;72.00;;;;;;5134924;27;20211;-66
2023/09/29 12:00:49;;;;;;;3.58;2.25;;;20.80;72.10;;;;;;5135141;27;20181;-66
2023/09/29 12:03:17;;;;;;;3.50;2.53;;;20.80;72.10;;;;;;5134004;27;20216;-67
2023/09/29 12:05:45;;;;;;;4.05;2.25;;;20.80;72.20;;;;;;5135031;27;20650;-67
2023/09/29 12:08:11;;;;;;;3.92;2.47;;;20.80;72.20;;;;;;5134746;27;20538;-67
2023/09/29 12:10:36;;;;;;;3.65;2.65;;;20.80;72.10;;;;;;5133849;27;20208;-66
2023/09/29 12:13:04;;;;;;;2.70;2.50;;;20.80;72.20;;;;;;5134786;27;20263;-67
2023/09/29 12:15:31;;;;;;;3.25;2.13;;;20.80;72.30;;;;;;5134858;27;20555;-67
2023/09/29 12:17:56;;;;;;;3.55;2.35;;;20.70;72.30;;;;;;5134123;27;20176;-66
2023/09/29 12:20:23;;;;;;;5.28;2.15;;;20.70;72.40;;;;;;5134388;27;20753;-67
2023/09/29 12:22:50;;;;;;;3.05;2.28;;;20.70;72.40;;;;;;5114916;27;20230;-67
2023/09/29 12:25:16;;;;;;;3.25;2.15;;;20.70;72.40;;;;;;5112958;28;20188;-67
2023/09/29 12:27:43;;;;;;;3.42;2.20;;;20.70;72.40;;;;;;5114161;28;20257;-66
2023/09/29 12:30:12;;;;;;;2.90;2.38;;;20.70;72.40;;;;;;5113594;28;20670;-66
2023/09/29 12:32:44;;;;;;;4.90;2.65;;;20.70;72.40;;;;;;5113328;28;20253;-67
2023/09/29 12:35:12;;;;;;;2.95;2.47;;;20.70;72.40;;;;;;5113607;28;20651;-67
2023/09/29 12:37:42;;;;;;;3.05;2.10;;;20.70;72.40;;;;;;5113525;28;20263;-66
2023/09/29 12:40:11;;;;;;;2.85;2.20;;;20.70;72.40;;;;;;5113311;28;20181;-66
2023/09/29 12:42:40;;;;;;;4.40;2.10;;;20.70;72.40;;;;;;5113546;28;20177;-66
2023/09/29 12:45:08;;;;;;;2.97;2.08;;;20.70;72.40;;;;;;5112735;28;20180;-67